sensor_id;sensor_type;location;lat;lon;timestamp;temperature;humidity
65087;DHT22;52094;51.234;-2.310;2022-07-29T02:06:05;14.00;60.50
65087;DHT22;52094;51.234;-2.310;2022-07-29T02:10:10;14.00;60.90
65087;DHT22;52094;51.234;-2.310;2022-07-29T02:14:23;13.90;60.00
65087;DHT22;52094;51.234;-2.310;2022-07-29T02:18:30;13.90;59.60
65087;DHT22;52094;51.234;-2.310;2022-07-29T02:22:51;13.90;62.50
65087;DHT22;52094;51.234;-2.310;2022-07-29T02:28:03;13.90;63.00
65087;DHT22;52094;51.234;-2.310;2022-07-29T02:32:34;13.80;63.20
65087;DHT22;52094;51.234;-2.310;2022-07-29T02:36:36;13.80;60.10
65087;DHT22;52094;51.234;-2.310;2022-07-29T02:40:57;13.80;60.40
65087;DHT22;52094;51.234;-2.310;2022-07-29T02:45:08;13.80;62.60
65087;DHT22;52094;51.234;-2.310;2022-07-29T02:49:13;13.90;60.70
65087;DHT22;52094;51.234;-2.310;2022-07-29T02:53:23;13.90;60.90
65087;DHT22;52094;51.234;-2.310;2022-07-29T03:12:24;14.00;63.30
65087;DHT22;52094;51.234;-2.310;2022-07-29T03:16:29;14.00;61.40
65087;DHT22;52094;51.234;-2.310;2022-07-29T03:20:37;14.00;61.20
65087;DHT22;52094;51.234;-2.310;2022-07-29T03:24:40;13.90;61.30
65087;DHT22;52094;51.234;-2.310;2022-07-29T03:28:38;13.90;61.30
65087;DHT22;52094;51.234;-2.310;2022-07-29T03:32:37;13.90;63.20
65087;DHT22;52094;51.234;-2.310;2022-07-29T03:36:42;13.90;61.60
65087;DHT22;52094;51.234;-2.310;2022-07-29T03:48:34;13.90;61.70
65087;DHT22;52094;51.234;-2.310;2022-07-29T03:52:36;13.90;61.70
65087;DHT22;52094;51.234;-2.310;2022-07-29T03:56:49;13.90;61.70
65087;DHT22;52094;51.234;-2.310;2022-07-29T04:00:44;13.80;63.20
65087;DHT22;52094;51.234;-2.310;2022-07-29T04:04:37;13.80;62.00
65087;DHT22;52094;51.234;-2.310;2022-07-29T04:08:25;13.70;62.10
65087;DHT22;52094;51.234;-2.310;2022-07-29T04:12:35;13.70;62.30
65087;DHT22;52094;51.234;-2.310;2022-07-29T04:16:35;13.70;62.50
65087;DHT22;52094;51.234;-2.310;2022-07-29T04:20:19;13.70;63.60
65087;DHT22;52094;51.234;-2.310;2022-07-29T04:24:16;13.70;62.20
65087;DHT22;52094;51.234;-2.310;2022-07-29T04:28:30;13.70;62.40
65087;DHT22;52094;51.234;-2.310;2022-07-29T04:32:20;13.70;63.50
65087;DHT22;52094;51.234;-2.310;2022-07-29T04:36:23;13.70;62.80
65087;DHT22;52094;51.234;-2.310;2022-07-29T04:40:18;13.70;64.00
65087;DHT22;52094;51.234;-2.310;2022-07-29T04:44:10;13.70;63.00
65087;DHT22;52094;51.234;-2.310;2022-07-29T04:48:14;13.70;62.90
65087;DHT22;52094;51.234;-2.310;2022-07-29T04:56:37;13.70;64.40
65087;DHT22;52094;51.234;-2.310;2022-07-29T05:00:46;13.80;63.20
65087;DHT22;52094;51.234;-2.310;2022-07-29T05:05:08;13.80;64.40
65087;DHT22;52094;51.234;-2.310;2022-07-29T05:08:56;13.90;63.50
65087;DHT22;52094;51.234;-2.310;2022-07-29T05:12:51;13.90;63.40
65087;DHT22;52094;51.234;-2.310;2022-07-29T05:16:50;14.00;63.60
65087;DHT22;52094;51.234;-2.310;2022-07-29T05:21:06;13.90;63.70
65087;DHT22;52094;51.234;-2.310;2022-07-29T05:24:58;13.90;64.70
65087;DHT22;52094;51.234;-2.310;2022-07-29T05:28:52;14.00;63.70
65087;DHT22;52094;51.234;-2.310;2022-07-29T05:32:54;14.00;64.10
65087;DHT22;52094;51.234;-2.310;2022-07-29T05:37:15;14.10;64.20
65087;DHT22;52094;51.234;-2.310;2022-07-29T05:41:24;14.30;64.60
65087;DHT22;52094;51.234;-2.310;2022-07-29T05:45:35;14.50;65.60
65087;DHT22;52094;51.234;-2.310;2022-07-29T05:49:42;14.70;64.70
65087;DHT22;52094;51.234;-2.310;2022-07-29T05:53:33;14.90;65.80
65087;DHT22;52094;51.234;-2.310;2022-07-29T05:57:29;15.20;64.90
65087;DHT22;52094;51.234;-2.310;2022-07-29T06:01:20;15.40;65.00
65087;DHT22;52094;51.234;-2.310;2022-07-29T06:05:59;15.70;68.40
65087;DHT22;52094;51.234;-2.310;2022-07-29T06:10:27;16.70;71.30
65087;DHT22;52094;51.234;-2.310;2022-07-29T06:14:58;18.20;73.90
65087;DHT22;52094;51.234;-2.310;2022-07-29T06:19:09;19.20;65.20
65087;DHT22;52094;51.234;-2.310;2022-07-29T06:23:46;19.70;65.30
65087;DHT22;52094;51.234;-2.310;2022-07-29T06:28:15;20.70;69.00
65087;DHT22;52094;51.234;-2.310;2022-07-29T06:32:06;22.00;63.80
65087;DHT22;52094;51.234;-2.310;2022-07-29T16:58:51;27.90;36.20
65087;DHT22;52094;51.234;-2.310;2022-07-29T17:03:24;27.90;36.50
65087;DHT22;52094;51.234;-2.310;2022-07-29T17:07:20;27.90;36.10
65087;DHT22;52094;51.234;-2.310;2022-07-29T17:11:24;27.80;35.20
65087;DHT22;52094;51.234;-2.310;2022-07-29T17:15:30;27.70;35.50
65087;DHT22;52094;51.234;-2.310;2022-07-29T17:19:20;27.70;36.70
65087;DHT22;52094;51.234;-2.310;2022-07-29T17:33:02;27.50;38.40
65087;DHT22;52094;51.234;-2.310;2022-07-29T18:08:34;26.00;39.40
65087;DHT22;52094;51.234;-2.310;2022-07-29T18:12:43;25.90;39.30
65087;DHT22;52094;51.234;-2.310;2022-07-29T18:21:10;25.60;38.20
65087;DHT22;52094;51.234;-2.310;2022-07-29T18:25:18;25.50;40.70
65087;DHT22;52094;51.234;-2.310;2022-07-29T18:35:03;25.20;41.10
65087;DHT22;52094;51.234;-2.310;2022-07-29T18:44:31;25.00;40.10
65087;DHT22;52094;51.234;-2.310;2022-07-29T18:53:50;24.70;39.40
65087;DHT22;52094;51.234;-2.310;2022-07-29T18:57:58;24.70;39.80
65087;DHT22;52094;51.234;-2.310;2022-07-29T19:11:37;24.70;41.80
65087;DHT22;52094;51.234;-2.310;2022-07-29T19:20:40;24.50;40.70
65087;DHT22;52094;51.234;-2.310;2022-07-29T19:25:08;24.20;40.80
65087;DHT22;52094;51.234;-2.310;2022-07-29T19:29:17;24.10;40.70
65087;DHT22;52094;51.234;-2.310;2022-07-29T19:53:56;23.20;41.70
65087;DHT22;52094;51.234;-2.310;2022-07-29T19:58:00;23.20;42.80
65087;DHT22;52094;51.234;-2.310;2022-07-29T20:07:43;22.90;46.20
65087;DHT22;52094;51.234;-2.310;2022-07-29T20:11:32;22.70;45.90
65087;DHT22;52094;51.234;-2.310;2022-07-29T20:15:31;22.60;43.60
65087;DHT22;52094;51.234;-2.310;2022-07-29T20:19:21;22.50;43.20
65087;DHT22;52094;51.234;-2.310;2022-07-29T20:23:31;22.30;43.50
65087;DHT22;52094;51.234;-2.310;2022-07-29T20:27:18;22.10;44.10
65087;DHT22;52094;51.234;-2.310;2022-07-29T20:31:12;22.00;44.10
65087;DHT22;52094;51.234;-2.310;2022-07-29T20:35:11;21.80;45.20
65087;DHT22;52094;51.234;-2.310;2022-07-29T20:39:26;21.70;46.20
65087;DHT22;52094;51.234;-2.310;2022-07-29T20:47:57;21.50;46.70
65087;DHT22;52094;51.234;-2.310;2022-07-29T20:52:10;21.30;46.00
65087;DHT22;52094;51.234;-2.310;2022-07-29T20:56:17;21.10;45.60
65087;DHT22;52094;51.234;-2.310;2022-07-29T21:00:24;21.00;49.20
65087;DHT22;52094;51.234;-2.310;2022-07-29T21:04:18;20.90;46.30
65087;DHT22;52094;51.234;-2.310;2022-07-29T21:08:13;20.80;47.50
65087;DHT22;52094;51.234;-2.310;2022-07-29T21:12:12;20.70;47.10
65087;DHT22;52094;51.234;-2.310;2022-07-29T21:16:13;20.50;48.40
65087;DHT22;52094;51.234;-2.310;2022-07-29T21:20:07;20.40;47.70
65087;DHT22;52094;51.234;-2.310;2022-07-29T21:24:07;20.30;48.10
65087;DHT22;52094;51.234;-2.310;2022-07-29T21:28:01;20.20;48.40
65087;DHT22;52094;51.234;-2.310;2022-07-29T21:32:11;20.10;48.60
65087;DHT22;52094;51.234;-2.310;2022-07-29T21:36:23;20.00;48.70
65087;DHT22;52094;51.234;-2.310;2022-07-29T21:40:52;19.90;51.90
65087;DHT22;52094;51.234;-2.310;2022-07-29T21:44:48;19.80;49.60
65087;DHT22;52094;51.234;-2.310;2022-07-29T21:53:47;19.70;53.00
65087;DHT22;52094;51.234;-2.310;2022-07-29T21:57:52;19.60;49.60
65087;DHT22;52094;51.234;-2.310;2022-07-29T22:02:17;19.50;50.40
65087;DHT22;52094;51.234;-2.310;2022-07-29T22:06:33;19.40;52.70
65087;DHT22;52094;51.234;-2.310;2022-07-29T22:11:20;19.30;53.80
65087;DHT22;52094;51.234;-2.310;2022-07-29T22:37:26;18.50;54.70
65087;DHT22;52094;51.234;-2.310;2022-07-29T22:42:14;18.30;55.00
65087;DHT22;52094;51.234;-2.310;2022-07-29T22:51:31;18.10;54.50
65087;DHT22;52094;51.234;-2.310;2022-07-29T22:55:31;18.10;55.30
